createdAt,value
2018-07-08T00:00:43.342Z,0
2018-07-08T00:01:53.659Z,0
2018-07-08T00:03:03.862Z,0
2018-07-08T00:04:14.199Z,0
2018-07-08T00:05:24.374Z,0
2018-07-08T00:06:34.606Z,0
2018-07-08T00:07:44.885Z,0
2018-07-08T00:08:55.072Z,0
2018-07-08T00:10:05.214Z,0
2018-07-08T00:11:15.384Z,0
2018-07-08T00:12:25.613Z,0
2018-07-08T00:13:35.525Z,0
2018-07-08T00:14:45.401Z,0
2018-07-08T00:15:55.618Z,0
2018-07-08T00:17:05.791Z,0
2018-07-08T00:18:15.954Z,0
2018-07-08T00:19:26.140Z,0
2018-07-08T00:20:36.313Z,0
2018-07-08T00:21:46.502Z,0
2018-07-08T00:22:56.668Z,0
2018-07-08T00:24:06.873Z,0
2018-07-08T00:25:17.140Z,0
2018-07-08T00:26:27.341Z,0
2018-07-08T00:27:37.245Z,0
2018-07-08T00:28:47.359Z,0
2018-07-08T00:29:57.496Z,0
2018-07-08T00:31:07.639Z,0
2018-07-08T00:32:17.432Z,0
2018-07-08T00:33:27.643Z,0
2018-07-08T00:34:37.502Z,0
2018-07-08T00:35:47.980Z,0
2018-07-08T00:36:57.875Z,0
2018-07-08T00:38:08.015Z,0
2018-07-08T00:39:18.230Z,0
2018-07-08T00:40:28.107Z,0
2018-07-08T00:41:38.266Z,0
2018-07-08T00:42:48.452Z,0
2018-07-08T00:43:58.708Z,0
2018-07-08T00:45:09.107Z,0
2018-07-08T00:46:18.646Z,0
2018-07-08T00:47:28.781Z,0
2018-07-08T00:48:38.953Z,0
2018-07-08T00:49:49.068Z,0
2018-07-08T00:50:58.947Z,0
2018-07-08T00:52:09.241Z,0
2018-07-08T00:53:19.512Z,0
2018-07-08T00:54:29.418Z,0
2018-07-08T00:55:39.585Z,0
2018-07-08T00:56:49.756Z,0
2018-07-08T00:57:59.888Z,0
2018-07-08T00:59:09.751Z,0
2018-07-08T01:00:19.897Z,0
2018-07-08T01:01:30.096Z,0
2018-07-08T01:02:40.342Z,0
2018-07-08T01:03:50.503Z,0
2018-07-08T01:05:00.468Z,0
2018-07-08T01:06:10.590Z,0
2018-07-08T01:07:20.791Z,0
2018-07-08T01:08:30.981Z,0
2018-07-08T01:09:41.137Z,0
2018-07-08T01:10:50.772Z,0
2018-07-08T01:12:00.903Z,0
2018-07-08T01:13:11.053Z,0
2018-07-08T01:14:21.211Z,0
2018-07-08T01:15:31.390Z,0
2018-07-08T01:16:41.549Z,0
2018-07-08T01:17:51.194Z,0
2018-07-08T01:19:01.476Z,0
2018-07-08T01:20:11.694Z,0
2018-07-08T01:21:21.889Z,0
2018-07-08T01:22:32.065Z,0
2018-07-08T01:23:43.174Z,0
2018-07-08T01:24:53.295Z,0
2018-07-08T01:26:03.424Z,0
2018-07-08T01:27:13.341Z,0
2018-07-08T01:28:23.319Z,0
2018-07-08T01:29:33.520Z,0
2018-07-08T01:30:43.730Z,0
2018-07-08T01:31:53.927Z,0
2018-07-08T01:33:03.819Z,0
2018-07-08T01:34:13.952Z,0
2018-07-08T01:35:24.314Z,0
2018-07-08T01:36:34.112Z,0
2018-07-08T01:37:44.251Z,0
2018-07-08T01:38:54.176Z,0
2018-07-08T01:40:04.528Z,0
2018-07-08T01:41:14.749Z,0
2018-07-08T01:42:24.708Z,0
2018-07-08T01:43:35.040Z,0
2018-07-08T01:44:45.234Z,0
2018-07-08T01:45:56.368Z,0
2018-07-08T01:47:06.479Z,0
2018-07-08T01:48:17.010Z,0
2018-07-08T01:49:27.159Z,0
2018-07-08T01:50:37.449Z,0
2018-07-08T01:51:47.357Z,0
2018-07-08T01:52:57.504Z,0
2018-07-08T01:54:07.671Z,0
2018-07-08T01:55:17.807Z,0
2018-07-08T01:56:28.113Z,0
2018-07-08T01:57:38.232Z,0
2018-07-08T01:58:48.412Z,0
2018-07-08T01:59:58.533Z,0
2018-07-08T02:01:08.675Z,0
2018-07-08T02:02:18.786Z,0
2018-07-08T02:03:28.981Z,0
2018-07-08T02:04:39.167Z,0
2018-07-08T02:05:49.334Z,0
2018-07-08T02:06:59.655Z,0
2018-07-08T02:08:09.905Z,0
2018-07-08T02:09:20.061Z,0
2018-07-08T02:10:30.207Z,0
2018-07-08T02:11:40.407Z,0
2018-07-08T02:12:50.544Z,0
2018-07-08T02:14:00.666Z,0
2018-07-08T02:15:10.793Z,0
2018-07-08T02:16:20.913Z,0
2018-07-08T02:17:31.180Z,0
2018-07-08T02:18:41.353Z,0
2018-07-08T02:19:51.594Z,4
2018-07-08T02:21:01.767Z,4
2018-07-08T02:22:11.968Z,0
2018-07-08T02:23:22.134Z,0
2018-07-08T02:24:32.084Z,4
2018-07-08T02:25:42.204Z,4
2018-07-08T02:26:52.529Z,0
2018-07-08T02:28:02.314Z,4
2018-07-08T02:29:12.074Z,4
2018-07-08T02:30:22.233Z,4
2018-07-08T02:31:32.399Z,4
2018-07-08T02:32:42.265Z,8
2018-07-08T02:33:52.410Z,8
2018-07-08T02:35:02.541Z,8
2018-07-08T02:36:13.872Z,12
2018-07-08T02:37:23.995Z,12
2018-07-08T02:38:34.129Z,16
2018-07-08T02:39:43.998Z,16
2018-07-08T02:40:54.155Z,16
2018-07-08T02:42:04.316Z,20
2018-07-08T02:43:14.487Z,24
2018-07-08T02:44:24.727Z,28
2018-07-08T02:45:34.887Z,32
2018-07-08T02:46:45.044Z,40
2018-07-08T02:47:55.226Z,40
2018-07-08T02:49:05.342Z,48
2018-07-08T02:50:15.484Z,56
2018-07-08T02:51:25.670Z,60
2018-07-08T02:52:35.872Z,68
2018-07-08T02:53:46.120Z,84
2018-07-08T02:54:56.339Z,92
2018-07-08T02:56:06.685Z,104
2018-07-08T02:57:16.839Z,116
2018-07-08T02:58:26.961Z,124
2018-07-08T02:59:37.114Z,136
2018-07-08T03:00:47.247Z,152
2018-07-08T03:01:57.162Z,160
2018-07-08T03:03:07.345Z,172
2018-07-08T03:04:17.497Z,184
2018-07-08T03:05:27.746Z,196
2018-07-08T03:06:37.603Z,216
2018-07-08T03:07:47.823Z,232
2018-07-08T03:08:58.009Z,256
2018-07-08T03:10:09.105Z,280
2018-07-08T03:11:19.245Z,300
2018-07-08T03:12:29.373Z,320
2018-07-08T03:13:39.491Z,340
2018-07-08T03:14:49.617Z,360
2018-07-08T03:15:59.955Z,384
2018-07-08T03:17:10.341Z,408
2018-07-08T03:18:20.476Z,424
2018-07-08T03:19:30.585Z,448
2018-07-08T03:20:40.718Z,468
2018-07-08T03:21:50.947Z,488
2018-07-08T03:23:00.852Z,520
2018-07-08T03:24:10.991Z,548
2018-07-08T03:25:21.156Z,572
2018-07-08T03:26:31.018Z,600
2018-07-08T03:27:41.142Z,624
2018-07-08T03:28:51.272Z,644
2018-07-08T03:30:01.617Z,656
2018-07-08T03:31:11.769Z,680
2018-07-08T03:32:21.632Z,712
2018-07-08T03:33:32.056Z,736
2018-07-08T03:34:42.358Z,760
2018-07-08T03:35:52.715Z,804
2018-07-08T03:37:03.854Z,848
2018-07-08T03:38:13.588Z,876
2018-07-08T03:39:23.812Z,896
2018-07-08T03:40:33.968Z,912
2018-07-08T03:41:44.163Z,932
2018-07-08T03:42:54.397Z,952
2018-07-08T03:44:04.618Z,960
2018-07-08T03:45:14.760Z,960
2018-07-08T03:46:24.955Z,956
2018-07-08T03:47:35.082Z,964
2018-07-08T03:48:45.202Z,1004
2018-07-08T03:49:55.320Z,1052
2018-07-08T03:51:05.528Z,1092
2018-07-08T03:52:15.666Z,1116
2018-07-08T03:53:25.938Z,1136
2018-07-08T03:54:35.803Z,1164
2018-07-08T03:55:45.931Z,1156
2018-07-08T03:56:56.064Z,1124
2018-07-08T03:58:06.256Z,1132
2018-07-08T03:59:16.518Z,1124
2018-07-08T04:00:26.731Z,1124
2018-07-08T04:01:36.650Z,1180
2018-07-08T04:02:46.524Z,1272
2018-07-08T04:03:56.664Z,1340
2018-07-08T04:05:06.658Z,1392
2018-07-08T04:06:16.850Z,1400
2018-07-08T04:07:27.043Z,1368
2018-07-08T04:08:36.923Z,1360
2018-07-08T04:09:47.069Z,1400
2018-07-08T04:10:57.527Z,1424
2018-07-08T04:12:07.706Z,1380
2018-07-08T04:13:18.057Z,1304
2018-07-08T04:14:28.174Z,1288
2018-07-08T04:15:38.042Z,1340
2018-07-08T04:16:48.188Z,1408
2018-07-08T04:17:58.196Z,1468
2018-07-08T04:19:08.314Z,1492
2018-07-08T04:20:18.512Z,1484
2018-07-08T04:21:28.661Z,1488
2018-07-08T04:22:38.792Z,1504
2018-07-08T04:23:48.910Z,1540
2018-07-08T04:24:58.774Z,1648
2018-07-08T04:26:08.887Z,1864
2018-07-08T04:27:20.200Z,2132
2018-07-08T04:28:30.148Z,2360
2018-07-08T04:29:40.383Z,2492
2018-07-08T04:30:50.533Z,2588
2018-07-08T04:32:00.666Z,2588
2018-07-08T04:33:10.817Z,2636
2018-07-08T04:34:20.964Z,2776
2018-07-08T04:35:31.099Z,2804
2018-07-08T04:36:41.275Z,2608
2018-07-08T04:37:51.468Z,2404
2018-07-08T04:39:01.698Z,2544
2018-07-08T04:40:11.306Z,2704
2018-07-08T04:41:21.420Z,2728
2018-07-08T04:42:31.348Z,2864
2018-07-08T04:43:41.520Z,2888
2018-07-08T04:44:51.463Z,2848
2018-07-08T04:46:01.682Z,2692
2018-07-08T04:47:11.831Z,2604
2018-07-08T04:48:22.039Z,2552
2018-07-08T04:49:32.215Z,2536
2018-07-08T04:50:42.349Z,2636
2018-07-08T04:51:52.558Z,2752
2018-07-08T04:53:02.728Z,2828
2018-07-08T04:54:12.947Z,2880
2018-07-08T04:55:23.088Z,2868
2018-07-08T04:56:33.448Z,2888
2018-07-08T04:57:43.584Z,2988
2018-07-08T04:58:53.738Z,3140
2018-07-08T05:00:03.867Z,3256
2018-07-08T05:01:13.963Z,3372
2018-07-08T05:02:24.181Z,3496
2018-07-08T05:03:34.053Z,3516
2018-07-08T05:04:44.201Z,3592
2018-07-08T05:05:54.407Z,3636
2018-07-08T05:07:04.564Z,3628
2018-07-08T05:08:14.694Z,3628
2018-07-08T05:09:24.874Z,3608
2018-07-08T05:10:35.048Z,3592
2018-07-08T05:11:45.164Z,3764
2018-07-08T05:12:55.152Z,4016
2018-07-08T05:14:04.967Z,4124
2018-07-08T05:15:15.075Z,4308
2018-07-08T05:16:24.991Z,4380
2018-07-08T05:17:35.123Z,4364
2018-07-08T05:18:45.396Z,4236
2018-07-08T05:19:55.535Z,4316
2018-07-08T05:21:05.765Z,4588
2018-07-08T05:22:15.623Z,4744
2018-07-08T05:23:25.762Z,4880
2018-07-08T05:24:35.946Z,4900
2018-07-08T05:25:46.195Z,4980
2018-07-08T05:26:56.053Z,4984
2018-07-08T05:28:06.232Z,4916
2018-07-08T05:29:15.470Z,4640
2018-07-08T05:30:25.614Z,4252
2018-07-08T05:31:35.854Z,4056
2018-07-08T05:32:45.823Z,4148
2018-07-08T05:33:55.970Z,4204
2018-07-08T05:35:05.845Z,4528
2018-07-08T05:36:15.982Z,4648
2018-07-08T05:37:26.150Z,4748
2018-07-08T05:38:36.066Z,4676
2018-07-08T05:39:46.204Z,4316
2018-07-08T05:40:56.338Z,4108
2018-07-08T05:42:06.494Z,3864
2018-07-08T05:43:16.635Z,3996
2018-07-08T05:44:26.761Z,4356
2018-07-08T05:45:36.950Z,4652
2018-07-08T05:46:46.663Z,4784
2018-07-08T05:47:56.832Z,5300
2018-07-08T05:49:06.957Z,5508
2018-07-08T05:50:17.281Z,5548
2018-07-08T05:51:28.156Z,5672
2018-07-08T05:52:38.383Z,5684
2018-07-08T05:53:48.726Z,5588
2018-07-08T05:54:59.569Z,5496
2018-07-08T05:56:09.727Z,5708
2018-07-08T05:57:19.845Z,5656
2018-07-08T05:58:30.141Z,5384
2018-07-08T05:59:40.287Z,5356
2018-07-08T06:00:50.090Z,5584
2018-07-08T06:02:00.235Z,5736
2018-07-08T06:03:10.402Z,5684
2018-07-08T06:04:20.812Z,5576
2018-07-08T06:05:30.933Z,5684
2018-07-08T06:06:41.119Z,5820
2018-07-08T06:07:51.057Z,6160
2018-07-08T06:09:01.244Z,6472
2018-07-08T06:10:11.378Z,6648
2018-07-08T06:11:21.499Z,7100
2018-07-08T06:12:31.172Z,7344
2018-07-08T06:13:42.302Z,7380
2018-07-08T06:14:52.433Z,7332
2018-07-08T06:16:02.382Z,7152
2018-07-08T06:17:12.545Z,7912
2018-07-08T06:18:22.927Z,8340
2018-07-08T06:19:33.268Z,8416
2018-07-08T06:20:43.098Z,8144
2018-07-08T06:21:53.261Z,8368
2018-07-08T06:23:03.142Z,8144
2018-07-08T06:24:13.358Z,8640
2018-07-08T06:25:23.504Z,8892
2018-07-08T06:26:33.629Z,8788
2018-07-08T06:27:43.768Z,9000
2018-07-08T06:28:54.112Z,9456
2018-07-08T06:30:04.514Z,9212
2018-07-08T06:31:14.741Z,9320
2018-07-08T06:32:24.859Z,9420
2018-07-08T06:33:35.059Z,8584
2018-07-08T06:34:45.501Z,8012
2018-07-08T06:35:55.742Z,8028
2018-07-08T06:37:05.904Z,7732
2018-07-08T06:38:16.065Z,7036
2018-07-08T06:39:26.506Z,7564
2018-07-08T06:40:36.630Z,8504
2018-07-08T06:41:46.517Z,8116
2018-07-08T06:42:56.675Z,8500
2018-07-08T06:44:06.836Z,9244
2018-07-08T06:45:17.007Z,9400
2018-07-08T06:46:27.167Z,8588
2018-07-08T06:47:37.173Z,8712
2018-07-08T06:48:47.306Z,8320
2018-07-08T06:49:57.451Z,8140
2018-07-08T06:51:07.690Z,8440
2018-07-08T06:52:17.853Z,8036
2018-07-08T06:53:27.722Z,7448
2018-07-08T06:54:37.855Z,7072
2018-07-08T06:55:47.728Z,7364
2018-07-08T06:56:57.854Z,7740
2018-07-08T06:58:07.994Z,7948
2018-07-08T06:59:17.543Z,8452
2018-07-08T07:00:27.836Z,9120
2018-07-08T07:01:38.102Z,10160
2018-07-08T07:02:48.267Z,10744
2018-07-08T07:03:58.494Z,10672
2018-07-08T07:05:08.723Z,10320
2018-07-08T07:06:18.943Z,10236
2018-07-08T07:07:29.114Z,10696
2018-07-08T07:08:39.347Z,10980
2018-07-08T07:09:49.727Z,10476
2018-07-08T07:10:59.859Z,10560
2018-07-08T07:12:10.065Z,10340
2018-07-08T07:13:20.302Z,9916
2018-07-08T07:14:30.446Z,10984
2018-07-08T07:15:40.363Z,12428
2018-07-08T07:16:50.519Z,13316
2018-07-08T07:18:00.751Z,13856
2018-07-08T07:19:10.972Z,13976
2018-07-08T07:20:21.120Z,14688
2018-07-08T07:21:31.295Z,14148
2018-07-08T07:22:41.528Z,13004
2018-07-08T07:23:51.759Z,13436
2018-07-08T07:25:01.893Z,12720
2018-07-08T07:26:12.058Z,12876
2018-07-08T07:27:22.215Z,12384
2018-07-08T07:28:32.159Z,11400
2018-07-08T07:29:42.428Z,12336
2018-07-08T07:30:52.613Z,11548
2018-07-08T07:32:02.560Z,12244
2018-07-08T07:33:12.360Z,12540
2018-07-08T07:34:22.532Z,12168
2018-07-08T07:35:32.678Z,13692
2018-07-08T07:36:42.841Z,13264
2018-07-08T07:37:53.034Z,14204
2018-07-08T07:39:03.181Z,13580
2018-07-08T07:40:13.359Z,14292
2018-07-08T07:41:23.560Z,13344
2018-07-08T07:42:33.720Z,12988
2018-07-08T07:43:43.848Z,13624
2018-07-08T07:44:54.028Z,13464
2018-07-08T07:46:04.165Z,11680
2018-07-08T07:47:14.326Z,11744
2018-07-08T07:48:24.209Z,12224
2018-07-08T07:49:34.377Z,13648
2018-07-08T07:50:44.524Z,13804
2018-07-08T07:51:54.710Z,13744
2018-07-08T07:53:04.866Z,15264
2018-07-08T07:54:15.039Z,15264
2018-07-08T07:55:25.207Z,12888
2018-07-08T07:56:35.651Z,12384
2018-07-08T07:57:45.864Z,11804
2018-07-08T07:58:56.126Z,11116
2018-07-08T08:00:06.099Z,11588
2018-07-08T08:01:16.304Z,12124
2018-07-08T08:02:26.180Z,12724
2018-07-08T08:03:36.421Z,12544
2018-07-08T08:04:46.326Z,12944
2018-07-08T08:05:56.475Z,13488
2018-07-08T08:07:06.661Z,14688
2018-07-08T08:08:17.046Z,15488
2018-07-08T08:09:27.220Z,16128
2018-07-08T08:10:37.460Z,16736
2018-07-08T08:11:47.415Z,17664
2018-07-08T08:12:57.623Z,17824
2018-07-08T08:14:07.963Z,16544
2018-07-08T08:15:17.940Z,16704
2018-07-08T08:16:28.296Z,16928
2018-07-08T08:17:38.455Z,16736
2018-07-08T08:18:48.882Z,15040
2018-07-08T08:19:59.067Z,16480
2018-07-08T08:21:09.153Z,18944
2018-07-08T08:22:19.217Z,21600
2018-07-08T08:23:29.590Z,21536
2018-07-08T08:24:40.741Z,20640
2018-07-08T08:25:50.881Z,20448
2018-07-08T08:27:01.013Z,20704
2018-07-08T08:28:11.194Z,17952
2018-07-08T08:29:20.477Z,18880
2018-07-08T08:30:30.639Z,20544
2018-07-08T08:31:40.818Z,21920
2018-07-08T08:32:51.069Z,21248
2018-07-08T08:34:00.789Z,20480
2018-07-08T08:35:11.036Z,19456
2018-07-08T08:36:21.201Z,18528
2018-07-08T08:37:31.350Z,17472
2018-07-08T08:38:41.581Z,16928
2018-07-08T08:39:51.499Z,16064
2018-07-08T08:41:01.388Z,15552
2018-07-08T08:42:11.765Z,16160
2018-07-08T08:43:21.939Z,17440
2018-07-08T08:44:32.084Z,18656
2018-07-08T08:45:42.220Z,18528
2018-07-08T08:46:52.603Z,20192
2018-07-08T08:48:02.749Z,21536
2018-07-08T08:49:12.899Z,23168
2018-07-08T08:50:23.047Z,24160
2018-07-08T08:51:33.243Z,23840
2018-07-08T08:52:43.449Z,22080
2018-07-08T08:53:53.585Z,20384
2018-07-08T08:55:03.743Z,22112
2018-07-08T08:56:13.914Z,21856
2018-07-08T08:57:24.190Z,26400
2018-07-08T08:58:34.557Z,30144
2018-07-08T08:59:44.707Z,33984
2018-07-08T09:00:54.823Z,45920
2018-07-08T09:02:04.444Z,34368
2018-07-08T09:03:14.907Z,30688
2018-07-08T09:04:24.701Z,58400
2018-07-08T09:05:34.865Z,50912
2018-07-08T09:06:45.040Z,28896
2018-07-08T09:07:55.215Z,37120
2018-07-08T09:09:05.419Z,22304
2018-07-08T09:10:15.600Z,24224
2018-07-08T09:11:25.564Z,16800
2018-07-08T09:12:35.511Z,26368
2018-07-08T09:13:45.746Z,70208
2018-07-08T09:14:55.931Z,69248
2018-07-08T09:16:06.073Z,68416
2018-07-08T09:17:16.316Z,55840
2018-07-08T09:18:26.778Z,60832
2018-07-08T09:19:36.983Z,62016
2018-07-08T09:20:46.870Z,62176
2018-07-08T09:21:57.051Z,69760
2018-07-08T09:23:07.233Z,66784
2018-07-08T09:24:17.413Z,58464
2018-07-08T09:25:27.580Z,61440
2018-07-08T09:26:37.782Z,62240
2018-07-08T09:27:47.991Z,57952
2018-07-08T09:28:58.169Z,53728
2018-07-08T09:30:08.375Z,60896
2018-07-08T09:31:18.591Z,79424
2018-07-08T09:32:28.500Z,83648
2018-07-08T09:33:38.651Z,76704
2018-07-08T09:34:48.302Z,74656
2018-07-08T09:35:58.586Z,72352
2018-07-08T09:37:08.415Z,67744
2018-07-08T09:38:18.783Z,64768
2018-07-08T09:39:29.212Z,67904
2018-07-08T09:40:39.462Z,65888
2018-07-08T09:41:49.666Z,67232
2018-07-08T09:43:00.111Z,79392
2018-07-08T09:44:10.046Z,81792
2018-07-08T09:45:25.218Z,66944
2018-07-08T09:46:35.419Z,66848
2018-07-08T09:47:45.655Z,71456
2018-07-08T09:48:55.865Z,70656
2018-07-08T09:50:06.073Z,50656
2018-07-08T09:51:16.422Z,61920
2018-07-08T09:52:26.611Z,58656
2018-07-08T09:53:36.823Z,69632
2018-07-08T09:54:47.012Z,70080
2018-07-08T09:55:57.544Z,73792
2018-07-08T09:57:07.727Z,79072
2018-07-08T09:58:17.653Z,78240
2018-07-08T09:59:27.921Z,82560
2018-07-08T10:00:38.201Z,81696
2018-07-08T10:01:48.416Z,70848
2018-07-08T10:02:58.633Z,57856
2018-07-08T10:04:08.822Z,74752
2018-07-08T10:05:18.637Z,82112
2018-07-08T10:06:28.553Z,61280
2018-07-08T10:07:39.335Z,75360
2018-07-08T10:10:01.903Z,75168
2018-07-08T10:11:12.113Z,48288
2018-07-08T10:12:22.520Z,59072
2018-07-08T10:13:32.748Z,37696
2018-07-08T10:14:43.006Z,88896
2018-07-08T10:15:53.472Z,102816
2018-07-08T10:17:03.690Z,38528
2018-07-08T10:18:13.933Z,98432
2018-07-08T10:19:24.317Z,92928
2018-07-08T10:20:33.983Z,86208
2018-07-08T10:21:43.942Z,93408
2018-07-08T10:22:54.108Z,80928
2018-07-08T10:24:04.019Z,67680
2018-07-08T10:25:14.304Z,35808
2018-07-08T10:26:24.570Z,25600
2018-07-08T10:27:34.756Z,21472
2018-07-08T10:28:44.683Z,90048
2018-07-08T10:29:54.856Z,44640
2018-07-08T10:31:05.043Z,59328
2018-07-08T10:32:14.980Z,46400
2018-07-08T10:33:25.463Z,96160
2018-07-08T10:34:35.712Z,103904
2018-07-08T10:35:45.883Z,33920
2018-07-08T10:36:56.038Z,93728
2018-07-08T10:38:06.331Z,84128
2018-07-08T10:39:16.526Z,91008
2018-07-08T10:40:27.734Z,82144
2018-07-08T10:41:37.916Z,25888
2018-07-08T10:42:47.830Z,31040
2018-07-08T10:43:58.036Z,73440
2018-07-08T10:45:08.201Z,90848
2018-07-08T10:46:18.371Z,94624
2018-07-08T10:47:28.020Z,94560
2018-07-08T10:48:38.434Z,93984
2018-07-08T10:49:48.606Z,101568
2018-07-08T10:50:59.009Z,104256
2018-07-08T10:52:09.178Z,93280
2018-07-08T10:53:19.118Z,87584
2018-07-08T10:54:30.329Z,78944
2018-07-08T10:55:40.598Z,78976
2018-07-08T10:56:50.543Z,77536
2018-07-08T10:58:00.729Z,85568
2018-07-08T10:59:10.911Z,92864
2018-07-08T11:00:20.846Z,93504
2018-07-08T11:01:31.008Z,93728
2018-07-08T11:02:41.873Z,36512
2018-07-08T11:03:52.093Z,31520
2018-07-08T11:05:01.955Z,79776
2018-07-08T11:06:11.990Z,96032
2018-07-08T11:07:22.196Z,99904
2018-07-08T11:08:32.184Z,107264
2018-07-08T11:09:42.365Z,96096
2018-07-08T11:10:52.829Z,60320
2018-07-08T11:12:03.078Z,99840
2018-07-08T11:13:13.388Z,101632
2018-07-08T11:14:23.595Z,50464
2018-07-08T11:15:33.841Z,52832
2018-07-08T11:16:44.059Z,103008
2018-07-08T11:17:54.246Z,94208
2018-07-08T11:19:04.460Z,48928
2018-07-08T11:20:14.812Z,22656
2018-07-08T11:21:25.721Z,20128
2018-07-08T11:22:36.101Z,17888
2018-07-08T11:23:46.339Z,15680
2018-07-08T11:24:56.506Z,15392
2018-07-08T11:26:06.712Z,16128
2018-07-08T11:27:16.940Z,17504
2018-07-08T11:28:27.189Z,18080
2018-07-08T11:29:37.376Z,18688
2018-07-08T11:30:47.799Z,46400
2018-07-08T11:31:57.732Z,26560
2018-07-08T11:33:08.033Z,21344
2018-07-08T11:34:18.544Z,39040
2018-07-08T11:35:28.551Z,26080
2018-07-08T11:36:38.707Z,58016
2018-07-08T11:37:49.874Z,32512
2018-07-08T11:39:00.132Z,21568
2018-07-08T11:40:10.349Z,20992
2018-07-08T11:41:20.545Z,19808
2018-07-08T11:42:30.745Z,18816
2018-07-08T11:43:40.665Z,17472
2018-07-08T11:44:51.129Z,14736
2018-07-08T11:46:01.074Z,15456
2018-07-08T11:47:11.356Z,17472
2018-07-08T11:48:21.588Z,23744
2018-07-08T11:49:31.826Z,74656
2018-07-08T11:50:42.101Z,52352
2018-07-08T11:51:52.525Z,109728
2018-07-08T11:53:02.684Z,41056
2018-07-08T11:54:13.131Z,64736
2018-07-08T11:55:23.235Z,29536
2018-07-08T11:56:33.570Z,31392
2018-07-08T11:57:43.753Z,54272
2018-07-08T11:58:53.952Z,90656
2018-07-08T12:00:04.363Z,94912
2018-07-08T12:01:14.317Z,105056
2018-07-08T12:02:24.560Z,101920
2018-07-08T12:03:34.790Z,84928
2018-07-08T12:04:45.201Z,73152
2018-07-08T12:05:55.375Z,25696
2018-07-08T12:07:05.574Z,22496
2018-07-08T12:08:15.797Z,93376
2018-07-08T12:09:25.994Z,88864
2018-07-08T12:10:36.804Z,87136
2018-07-08T12:11:46.994Z,82528
2018-07-08T12:12:57.208Z,77632
2018-07-08T12:14:07.392Z,73856
2018-07-08T12:15:17.544Z,71776
2018-07-08T12:16:27.893Z,71296
2018-07-08T12:17:38.146Z,75008
2018-07-08T12:18:48.952Z,77312
2018-07-08T12:20:00.549Z,75392
2018-07-08T12:21:10.804Z,46624
2018-07-08T12:22:20.798Z,68704
2018-07-08T12:23:31.114Z,71328
2018-07-08T12:24:41.320Z,78560
2018-07-08T12:25:51.546Z,20768
2018-07-08T12:27:02.741Z,64960
2018-07-08T12:28:12.973Z,61024
2018-07-08T12:29:23.206Z,20032
2018-07-08T12:30:33.434Z,85152
2018-07-08T12:31:43.679Z,80480
2018-07-08T12:32:53.911Z,76544
2018-07-08T12:34:04.478Z,83072
2018-07-08T12:35:14.786Z,86176
2018-07-08T12:36:25.016Z,81152
2018-07-08T12:37:35.242Z,60000
2018-07-08T12:38:45.430Z,45248
2018-07-08T12:39:55.677Z,90624
2018-07-08T12:41:05.897Z,98976
2018-07-08T12:42:16.069Z,96768
2018-07-08T12:43:26.258Z,87456
2018-07-08T12:44:36.791Z,80512
2018-07-08T12:45:47.256Z,86336
2018-07-08T12:46:57.510Z,74304
2018-07-08T12:48:07.409Z,77248
2018-07-08T12:49:17.633Z,71520
2018-07-08T12:50:27.859Z,83072
2018-07-08T12:51:38.081Z,101856
2018-07-08T12:52:48.284Z,105632
2018-07-08T12:53:58.485Z,97504
2018-07-08T12:55:08.684Z,87072
2018-07-08T12:56:18.887Z,88928
2018-07-08T12:57:29.071Z,98080
2018-07-08T12:58:39.081Z,94496
2018-07-08T12:59:49.489Z,14932
2018-07-08T13:00:59.749Z,64960
2018-07-08T13:02:09.962Z,15456
2018-07-08T13:03:19.875Z,43168
2018-07-08T13:04:30.054Z,75104
2018-07-08T13:05:40.276Z,76928
2018-07-08T13:06:50.829Z,99744
2018-07-08T13:08:00.772Z,47648
2018-07-08T13:09:10.970Z,21056
2018-07-08T13:10:21.234Z,19552
2018-07-08T13:11:31.563Z,18112
2018-07-08T13:12:41.999Z,23328
2018-07-08T13:13:52.434Z,84288
2018-07-08T13:15:02.610Z,70016
2018-07-08T13:16:12.809Z,74976
2018-07-08T13:17:22.734Z,94272
2018-07-08T13:18:32.944Z,96832
2018-07-08T13:19:43.158Z,21920
2018-07-08T13:20:53.460Z,16768
2018-07-08T13:22:03.667Z,18112
2018-07-08T13:23:13.930Z,91200
2018-07-08T13:24:25.111Z,75872
2018-07-08T13:25:35.277Z,63680
2018-07-08T13:26:45.230Z,23392
2018-07-08T13:27:55.423Z,17216
2018-07-08T13:29:06.451Z,20256
2018-07-08T13:30:16.865Z,23136
2018-07-08T13:31:27.063Z,65472
2018-07-08T13:32:37.530Z,16640
2018-07-08T13:33:48.188Z,13884
2018-07-08T13:34:58.589Z,12488
2018-07-08T13:36:08.831Z,12564
2018-07-08T13:37:19.272Z,14880
2018-07-08T13:38:29.516Z,29856
2018-07-08T13:39:39.674Z,18976
2018-07-08T13:40:49.851Z,38176
2018-07-08T13:42:00.069Z,35072
2018-07-08T13:43:10.257Z,71264
2018-07-08T13:44:20.488Z,64864
2018-07-08T13:45:30.677Z,58912
2018-07-08T13:46:40.821Z,18368
2018-07-08T13:47:51.017Z,13832
2018-07-08T13:49:01.237Z,11828
2018-07-08T13:50:11.503Z,10708
2018-07-08T13:51:21.735Z,10404
2018-07-08T13:52:31.938Z,9632
2018-07-08T13:53:42.417Z,8580
2018-07-08T13:54:52.808Z,9252
2018-07-08T13:56:03.007Z,11360
2018-07-08T13:57:13.206Z,13876
2018-07-08T13:58:22.909Z,17920
2018-07-08T13:59:34.191Z,46880
2018-07-08T14:00:44.417Z,15776
2018-07-08T14:01:54.628Z,13724
2018-07-08T14:03:04.913Z,11688
2018-07-08T14:04:15.093Z,10088
2018-07-08T14:05:25.977Z,9440
2018-07-08T14:06:36.155Z,9184
2018-07-08T14:07:46.348Z,9716
2018-07-08T14:08:56.163Z,8980
2018-07-08T14:10:06.107Z,8572
2018-07-08T14:11:16.412Z,8552
2018-07-08T14:12:26.657Z,8836
2018-07-08T14:13:36.831Z,9192
2018-07-08T14:14:47.349Z,9248
2018-07-08T14:15:57.782Z,9072
2018-07-08T14:17:08.001Z,8908
2018-07-08T14:18:17.915Z,8764
2018-07-08T14:19:28.073Z,8764
2018-07-08T14:20:39.002Z,9508
2018-07-08T14:21:49.445Z,13512
2018-07-08T14:22:59.686Z,28800
2018-07-08T14:24:09.905Z,44864
2018-07-08T14:25:20.077Z,18880
2018-07-08T14:26:30.290Z,27328
2018-07-08T14:27:40.517Z,50560
2018-07-08T14:28:50.675Z,22240
2018-07-08T14:30:01.114Z,17888
2018-07-08T14:31:11.333Z,17376
2018-07-08T14:32:22.069Z,17312
2018-07-08T14:33:32.261Z,35072
2018-07-08T14:34:42.488Z,55616
2018-07-08T14:35:52.727Z,55680
2018-07-08T14:37:02.761Z,51360
2018-07-08T14:38:12.952Z,15392
2018-07-08T14:39:23.168Z,14464
2018-07-08T14:40:33.395Z,25536
2018-07-08T14:41:43.345Z,45760
2018-07-08T14:42:53.520Z,45984
2018-07-08T14:44:03.786Z,20608
2018-07-08T14:45:13.989Z,16224
2018-07-08T14:46:24.282Z,45056
2018-07-08T14:47:34.478Z,32640
2018-07-08T14:48:44.670Z,17088
2018-07-08T14:49:54.833Z,20256
2018-07-08T14:51:05.025Z,16096
2018-07-08T14:52:15.195Z,13568
2018-07-08T14:53:25.446Z,11880
2018-07-08T14:54:35.670Z,11768
2018-07-08T14:55:45.614Z,39712
2018-07-08T14:56:55.562Z,43680
2018-07-08T14:58:05.844Z,46240
2018-07-08T14:59:16.060Z,45472
2018-07-08T15:00:26.332Z,50144
2018-07-08T15:01:36.517Z,51072
2018-07-08T15:02:46.705Z,45504
2018-07-08T15:03:56.897Z,42880
2018-07-08T15:05:07.117Z,21824
2018-07-08T15:06:17.332Z,15296
2018-07-08T15:07:27.690Z,13088
2018-07-08T15:08:37.853Z,12420
2018-07-08T15:09:48.125Z,13168
2018-07-08T15:10:58.414Z,18720
2018-07-08T15:12:08.613Z,18208
2018-07-08T15:13:18.567Z,17568
2018-07-08T15:14:28.870Z,17152
2018-07-08T15:15:39.366Z,16416
2018-07-08T15:16:49.760Z,15552
2018-07-08T15:17:59.703Z,15168
2018-07-08T15:19:10.888Z,15264
2018-07-08T15:20:21.101Z,15840
2018-07-08T15:21:31.306Z,16032
2018-07-08T15:22:41.488Z,15616
2018-07-08T15:23:51.684Z,15008
2018-07-08T15:25:01.873Z,14644
2018-07-08T15:26:12.139Z,14568
2018-07-08T15:27:22.351Z,13988
2018-07-08T15:28:32.367Z,13452
2018-07-08T15:29:42.758Z,12964
2018-07-08T15:30:52.955Z,12808
2018-07-08T15:32:03.226Z,12476
2018-07-08T15:33:13.181Z,12160
2018-07-08T15:34:24.354Z,11964
2018-07-08T15:35:34.536Z,12212
2018-07-08T15:36:44.729Z,11992